Time;durP1;ratioP1;P1;durP2;ratioP2;P2;SDS_P1;SDS_P2;PMS_P1;PMS_P2;Temp;Humidity;BMP_temperature;BMP_pressure;BME280_temperature;BME280_humidity;BME280_pressure;Samples;Min_cycle;Max_cycle;Signal;HPM_P1;HPM_P2
2022/11/08 00:01:51;;;;;;;0.60;0.60;;;9.80;99.90;;;;;;5009542;28;20228;-64
2022/11/08 00:04:19;;;;;;;0.70;0.70;;;9.80;99.90;;;;;;5023494;28;20210;-63
2022/11/08 00:15:03;;;;;;;0.80;0.80;;;9.70;99.90;;;;;;5012117;28;20675;-64
2022/11/08 00:17:32;;;;;;;0.77;0.77;;;9.70;99.90;;;;;;5021394;28;20201;-63
2022/11/08 00:19:59;;;;;;;0.80;0.80;;;9.70;99.90;;;;;;5014267;28;20658;-64
2022/11/08 00:22:26;;;;;;;1.40;0.80;;;9.70;99.90;;;;;;5024598;28;20229;-63
2022/11/08 00:24:52;;;;;;;1.13;0.80;;;9.80;99.90;;;;;;5028200;28;20218;-63
2022/11/08 00:27:21;;;;;;;2.30;0.70;;;9.70;99.90;;;;;;5013165;28;20203;-64
2022/11/08 00:29:48;;;;;;;0.70;0.70;;;9.70;99.90;;;;;;5014845;28;20292;-62
2022/11/08 00:32:18;;;;;;;0.70;0.70;;;9.70;99.90;;;;;;5011994;28;20621;-62
2022/11/08 00:34:45;;;;;;;0.60;0.60;;;9.80;99.90;;;;;;5014392;28;20211;-63
2022/11/08 00:37:12;;;;;;;0.70;0.70;;;9.80;99.90;;;;;;5027843;28;20689;-62
2022/11/08 00:39:40;;;;;;;0.70;0.70;;;9.70;99.90;;;;;;5011589;28;20557;-63
2022/11/08 00:42:07;;;;;;;0.90;0.90;;;9.70;99.90;;;;;;5012059;28;20226;-63
2022/11/08 00:44:34;;;;;;;0.73;0.73;;;9.60;99.90;;;;;;5011481;28;20211;-64
2022/11/08 00:47:01;;;;;;;0.60;0.60;;;9.60;99.90;;;;;;5006514;28;20202;-64
2022/11/08 00:49:30;;;;;;;0.63;0.63;;;9.60;99.90;;;;;;5008113;28;20464;-64
2022/11/08 00:51:56;;;;;;;0.60;0.60;;;9.60;99.90;;;;;;5005900;28;20228;-63
2022/11/08 00:54:24;;;;;;;0.60;0.60;;;9.60;99.90;;;;;;4999004;28;20228;-63
2022/11/08 00:56:50;;;;;;;0.57;0.57;;;9.60;99.90;;;;;;4999758;28;20206;-62
2022/11/08 00:59:19;;;;;;;0.50;0.50;;;9.50;99.90;;;;;;5004905;28;20210;-61
2022/11/08 01:01:46;;;;;;;0.60;0.60;;;9.50;99.90;;;;;;4995954;28;20592;-62
2022/11/08 01:04:16;;;;;;;0.50;0.50;;;9.50;99.90;;;;;;4994751;28;20212;-63
2022/11/08 01:06:45;;;;;;;0.63;0.63;;;9.50;99.90;;;;;;4999282;28;20201;-63
2022/11/08 01:09:12;;;;;;;0.80;0.80;;;9.60;99.90;;;;;;5004424;28;20209;-63
2022/11/08 01:11:44;;;;;;;0.60;0.60;;;9.60;99.90;;;;;;5004624;28;20239;-63
2022/11/08 01:14:11;;;;;;;0.50;0.50;;;9.70;99.90;;;;;;5006537;28;20201;-63
2022/11/08 01:16:38;;;;;;;0.70;0.70;;;9.70;99.90;;;;;;4999959;28;20293;-64
2022/11/08 01:19:05;;;;;;;0.43;0.43;;;9.70;99.90;;;;;;5007199;28;20225;-63
2022/11/08 01:21:31;;;;;;;0.93;0.93;;;9.70;99.90;;;;;;5000297;28;20233;-63
2022/11/08 01:23:59;;;;;;;0.63;0.63;;;9.70;99.90;;;;;;4997743;28;20236;-63
2022/11/08 01:26:28;;;;;;;0.70;0.70;;;9.70;99.90;;;;;;5005210;28;20205;-62
2022/11/08 01:28:56;;;;;;;0.63;0.63;;;9.70;99.90;;;;;;4999911;28;20198;-62
2022/11/08 01:31:25;;;;;;;0.70;0.70;;;9.70;99.90;;;;;;5004582;28;20225;-63
2022/11/08 01:33:52;;;;;;;0.57;0.57;;;9.70;99.90;;;;;;5008783;28;20237;-64
2022/11/08 01:36:21;;;;;;;2.63;0.87;;;9.70;99.90;;;;;;5002740;28;20207;-63
2022/11/08 01:38:48;;;;;;;0.70;0.60;;;9.60;99.90;;;;;;5004377;28;20205;-64
2022/11/08 01:41:17;;;;;;;0.63;0.63;;;9.70;99.90;;;;;;4998447;28;20229;-63
2022/11/08 01:43:45;;;;;;;0.43;0.43;;;9.70;99.90;;;;;;4999654;28;20225;-62
2022/11/08 01:46:37;;;;;;;0.60;0.60;;;9.70;99.90;;;;;;5001118;28;20229;-62
2022/11/08 01:49:40;;;;;;;1.67;0.80;;;9.70;99.90;;;;;;5004468;28;20285;-63
2022/11/08 01:52:13;;;;;;;0.50;0.50;;;9.70;99.90;;;;;;5001301;28;20227;-62
2022/11/08 01:54:45;;;;;;;1.03;0.80;;;9.60;99.90;;;;;;5002292;28;20209;-62
2022/11/08 01:57:17;;;;;;;0.80;0.77;;;9.60;99.90;;;;;;5002416;28;20209;-62
2022/11/08 01:59:48;;;;;;;0.50;0.50;;;9.60;99.90;;;;;;5004716;28;20236;-62
2022/11/08 02:02:15;;;;;;;0.80;0.80;;;9.60;99.90;;;;;;5002778;28;20225;-62
2022/11/08 02:04:43;;;;;;;0.60;0.60;;;9.60;99.90;;;;;;5000335;28;20234;-62
2022/11/08 02:07:12;;;;;;;1.03;0.90;;;9.60;99.90;;;;;;4998198;28;20660;-62
2022/11/08 02:09:42;;;;;;;0.53;0.53;;;9.60;99.90;;;;;;5001337;28;20620;-62
2022/11/08 02:12:10;;;;;;;0.90;0.90;;;9.60;99.90;;;;;;5006211;28;20312;-63
2022/11/08 02:14:38;;;;;;;1.80;0.90;;;9.50;99.90;;;;;;5005848;28;20310;-62
2022/11/08 02:17:06;;;;;;;1.00;0.60;;;9.40;99.90;;;;;;5003996;28;20209;-63
2022/11/08 02:19:39;;;;;;;0.60;0.60;;;9.40;99.90;;;;;;5003480;28;20214;-62
2022/11/08 02:22:13;;;;;;;0.70;0.70;;;9.40;99.90;;;;;;4999984;28;20225;-62
2022/11/08 02:24:41;;;;;;;0.70;0.70;;;9.40;99.90;;;;;;5000580;28;20208;-62
2022/11/08 02:27:09;;;;;;;0.73;0.73;;;9.40;99.90;;;;;;5002391;28;20210;-62
2022/11/08 02:29:36;;;;;;;0.60;0.60;;;9.40;99.90;;;;;;5000865;28;20229;-62
2022/11/08 02:32:04;;;;;;;0.60;0.60;;;9.40;99.90;;;;;;5002506;28;20232;-63
2022/11/08 02:34:35;;;;;;;1.43;0.70;;;9.40;99.90;;;;;;5002537;28;20210;-63
2022/11/08 02:37:03;;;;;;;0.60;0.60;;;9.40;99.90;;;;;;5003159;28;20210;-64
2022/11/08 02:39:31;;;;;;;1.70;0.83;;;9.50;99.90;;;;;;5001507;28;20205;-62
2022/11/08 02:42:00;;;;;;;0.63;0.63;;;9.50;99.90;;;;;;5001075;28;20229;-62
2022/11/08 02:44:26;;;;;;;0.40;0.40;;;9.50;99.90;;;;;;5003121;28;20225;-63
2022/11/08 02:46:53;;;;;;;0.63;0.63;;;9.50;99.90;;;;;;5003333;28;20214;-62
2022/11/08 02:49:21;;;;;;;0.70;0.70;;;9.50;99.90;;;;;;5001196;28;20202;-62
2022/11/08 02:51:48;;;;;;;0.60;0.60;;;9.50;99.90;;;;;;5006697;28;20225;-63
2022/11/08 02:54:14;;;;;;;0.60;0.60;;;9.50;99.90;;;;;;5003745;28;20198;-62
2022/11/08 02:56:41;;;;;;;0.70;0.70;;;9.60;99.90;;;;;;5003262;28;20214;-62
2022/11/08 02:59:09;;;;;;;0.50;0.50;;;9.50;99.90;;;;;;5003250;28;20690;-63
2022/11/08 03:01:36;;;;;;;0.60;0.60;;;9.60;99.90;;;;;;4999678;28;20228;-62
2022/11/08 03:04:03;;;;;;;0.80;0.70;;;9.60;99.90;;;;;;4998144;28;20313;-64
2022/11/08 03:06:30;;;;;;;0.50;0.50;;;9.50;99.90;;;;;;5003109;28;20296;-63
2022/11/08 03:08:57;;;;;;;0.40;0.40;;;9.40;99.90;;;;;;5003343;28;20575;-63
2022/11/08 03:11:24;;;;;;;0.63;0.63;;;9.40;99.90;;;;;;5007234;28;20224;-62
2022/11/08 03:13:51;;;;;;;0.50;0.50;;;9.40;99.90;;;;;;5008408;28;20202;-62
2022/11/08 03:16:19;;;;;;;0.73;0.73;;;9.40;99.90;;;;;;5005674;28;20205;-62
2022/11/08 03:18:46;;;;;;;0.60;0.60;;;9.30;99.90;;;;;;5005916;28;20744;-60
2022/11/08 03:21:13;;;;;;;0.60;0.60;;;9.30;99.90;;;;;;5006320;28;20257;-62
2022/11/08 03:23:40;;;;;;;0.43;0.43;;;9.20;99.90;;;;;;5005816;28;20691;-62
2022/11/08 03:26:07;;;;;;;0.40;0.40;;;9.20;99.90;;;;;;5002098;28;20213;-62
2022/11/08 03:28:34;;;;;;;0.60;0.60;;;9.20;99.90;;;;;;5001491;28;20210;-62
2022/11/08 03:31:01;;;;;;;0.60;0.60;;;9.20;99.90;;;;;;4997537;28;20309;-63
2022/11/08 03:33:30;;;;;;;0.60;0.60;;;9.20;99.90;;;;;;5001282;28;20204;-62
2022/11/08 03:35:57;;;;;;;0.40;0.40;;;9.10;99.90;;;;;;5002138;28;20576;-62
2022/11/08 03:38:24;;;;;;;0.77;0.77;;;9.10;99.90;;;;;;5003633;28;20304;-62
2022/11/08 03:40:51;;;;;;;0.60;0.60;;;9.10;99.90;;;;;;4999180;28;20726;-63
2022/11/08 03:43:17;;;;;;;0.60;0.60;;;9.00;99.90;;;;;;4999487;28;20224;-63
2022/11/08 03:45:46;;;;;;;0.50;0.50;;;9.00;99.90;;;;;;5003621;28;20202;-64
2022/11/08 03:48:13;;;;;;;0.60;0.60;;;9.00;99.90;;;;;;5007645;28;20240;-61
2022/11/08 03:50:41;;;;;;;0.50;0.50;;;8.90;99.90;;;;;;5005168;28;20228;-62
2022/11/08 03:53:08;;;;;;;0.63;0.63;;;8.90;99.90;;;;;;5003560;28;20205;-62
2022/11/08 03:55:35;;;;;;;0.67;0.67;;;8.80;99.90;;;;;;5001643;28;20587;-63
2022/11/08 03:58:01;;;;;;;0.63;0.63;;;8.90;99.90;;;;;;5004263;28;20203;-64
2022/11/08 04:00:29;;;;;;;0.47;0.47;;;8.90;99.90;;;;;;5003694;28;20225;-64
2022/11/08 04:03:01;;;;;;;0.50;0.50;;;8.80;99.90;;;;;;5005679;28;20206;-62
2022/11/08 04:05:31;;;;;;;0.77;0.77;;;8.80;99.90;;;;;;5007058;28;20695;-62
2022/11/08 04:07:59;;;;;;;0.60;0.60;;;8.80;99.90;;;;;;5006145;28;20558;-63
2022/11/08 04:10:26;;;;;;;0.60;0.60;;;8.90;99.90;;;;;;5013996;28;20283;-63
2022/11/08 04:15:37;;;;;;;0.67;0.67;;;8.90;99.90;;;;;;5006150;28;20216;-62
2022/11/08 04:23:37;;;;;;;0.50;0.50;;;9.00;99.90;;;;;;5011548;28;20629;-63
2022/11/08 04:26:06;;;;;;;0.77;0.60;;;9.10;99.90;;;;;;5020886;28;20296;-63
2022/11/08 04:28:34;;;;;;;0.60;0.60;;;9.10;99.90;;;;;;5009532;28;20201;-64
2022/11/08 04:31:03;;;;;;;0.60;0.60;;;9.20;99.90;;;;;;5012007;28;20226;-63
2022/11/08 04:33:30;;;;;;;1.23;0.70;;;9.10;99.90;;;;;;5003630;28;20568;-62
2022/11/08 04:36:02;;;;;;;0.77;0.77;;;9.10;99.90;;;;;;5003387;28;20564;-62
2022/11/08 04:38:30;;;;;;;0.60;0.60;;;9.20;99.90;;;;;;5006538;28;20668;-62
2022/11/08 04:41:01;;;;;;;0.77;0.77;;;9.20;99.90;;;;;;5012889;28;20232;-63
2022/11/08 04:43:28;;;;;;;0.60;0.60;;;9.10;99.90;;;;;;5025979;28;20225;-63
2022/11/08 04:45:59;;;;;;;0.60;0.60;;;9.10;99.90;;;;;;5012305;28;20205;-63
2022/11/08 04:48:26;;;;;;;0.63;0.63;;;9.10;99.90;;;;;;5011651;28;20293;-64
2022/11/08 04:50:53;;;;;;;0.60;0.60;;;9.10;99.90;;;;;;5012470;28;20217;-64
2022/11/08 04:53:20;;;;;;;0.60;0.60;;;9.10;99.90;;;;;;5012155;28;20258;-62
2022/11/08 04:55:47;;;;;;;0.57;0.57;;;9.00;99.90;;;;;;5012146;28;20593;-63
2022/11/08 04:58:15;;;;;;;0.67;0.67;;;9.00;99.90;;;;;;5012158;28;20197;-63
2022/11/08 05:00:42;;;;;;;0.70;0.70;;;9.00;99.90;;;;;;5017531;28;20235;-62
2022/11/08 05:03:09;;;;;;;0.63;0.50;;;9.00;99.90;;;;;;5014021;28;20202;-63
2022/11/08 05:05:36;;;;;;;0.73;0.73;;;9.00;99.90;;;;;;5002752;28;20686;-62
2022/11/08 05:08:02;;;;;;;0.50;0.50;;;9.00;99.90;;;;;;5005231;28;20198;-63
2022/11/08 05:10:29;;;;;;;0.40;0.40;;;8.90;99.90;;;;;;5004911;28;20229;-63
2022/11/08 05:12:57;;;;;;;0.60;0.60;;;8.90;99.90;;;;;;5008951;28;20544;-62
2022/11/08 05:15:25;;;;;;;0.60;0.60;;;8.90;99.90;;;;;;5002935;28;20252;-63
2022/11/08 05:17:52;;;;;;;0.40;0.40;;;8.90;99.90;;;;;;5008366;28;20205;-63
2022/11/08 05:25:48;;;;;;;0.50;0.50;;;8.90;99.90;;;;;;4999699;28;20204;-66
2022/11/08 05:28:15;;;;;;;0.50;0.50;;;8.90;99.90;;;;;;5002769;28;20289;-63
2022/11/08 05:30:43;;;;;;;2.00;0.50;;;8.90;99.90;;;;;;5006519;28;20225;-63
2022/11/08 05:33:12;;;;;;;0.70;0.70;;;9.00;99.90;;;;;;5001881;28;20214;-62
2022/11/08 05:35:39;;;;;;;0.60;0.60;;;9.00;99.90;;;;;;5007254;28;20213;-62
2022/11/08 05:38:06;;;;;;;0.60;0.60;;;8.90;99.90;;;;;;5006068;28;20555;-62
2022/11/08 05:40:33;;;;;;;0.40;0.40;;;8.80;99.90;;;;;;5011320;28;20700;-62
2022/11/08 05:43:00;;;;;;;0.50;0.50;;;8.80;99.90;;;;;;5011373;28;20205;-62
2022/11/08 05:45:27;;;;;;;0.43;0.43;;;8.80;99.90;;;;;;5010356;28;20231;-62
2022/11/08 05:47:56;;;;;;;0.50;0.50;;;8.80;99.90;;;;;;5011877;28;20212;-62
2022/11/08 05:50:23;;;;;;;0.57;0.57;;;8.70;99.90;;;;;;5012619;28;20319;-62
2022/11/08 05:52:51;;;;;;;0.63;0.63;;;8.70;99.90;;;;;;5004694;28;20504;-62
2022/11/08 05:55:18;;;;;;;0.50;0.50;;;8.70;99.90;;;;;;5009720;28;20271;-62
2022/11/08 05:57:44;;;;;;;0.60;0.60;;;8.70;99.90;;;;;;5012704;28;20208;-62
2022/11/08 06:00:12;;;;;;;0.50;0.50;;;8.70;99.90;;;;;;5014504;28;20223;-62
2022/11/08 06:02:39;;;;;;;0.50;0.50;;;8.70;99.90;;;;;;5011811;28;20766;-62
2022/11/08 06:05:09;;;;;;;0.60;0.60;;;8.70;99.90;;;;;;5004148;28;20221;-61
2022/11/08 06:07:35;;;;;;;0.40;0.40;;;8.70;99.90;;;;;;5003273;28;20208;-62
2022/11/08 06:10:03;;;;;;;0.60;0.60;;;8.70;99.90;;;;;;5015720;28;20209;-61
2022/11/08 06:12:30;;;;;;;0.60;0.60;;;8.70;99.90;;;;;;5015042;28;20668;-62
2022/11/08 06:14:57;;;;;;;0.47;0.47;;;8.80;99.90;;;;;;5008430;28;20563;-62
2022/11/08 06:17:24;;;;;;;0.40;0.40;;;8.80;99.90;;;;;;5013517;28;20210;-63
2022/11/08 06:19:51;;;;;;;0.40;0.40;;;8.90;99.90;;;;;;5012030;28;20202;-62
2022/11/08 06:22:19;;;;;;;1.00;0.67;;;9.00;99.90;;;;;;5011601;28;20221;-61
2022/11/08 06:24:46;;;;;;;0.53;0.53;;;9.00;99.90;;;;;;5007541;28;20233;-63
2022/11/08 06:27:13;;;;;;;0.60;0.60;;;9.00;99.90;;;;;;5003081;28;20292;-62
2022/11/08 06:29:41;;;;;;;0.60;0.60;;;9.00;99.90;;;;;;5013010;28;20212;-62
2022/11/08 06:32:08;;;;;;;0.50;0.50;;;9.10;99.90;;;;;;5008375;28;20233;-64
2022/11/08 06:34:35;;;;;;;0.57;0.57;;;9.20;99.90;;;;;;5001505;28;20208;-63
2022/11/08 06:37:02;;;;;;;0.40;0.40;;;9.30;99.90;;;;;;5007899;28;20213;-60
2022/11/08 06:39:30;;;;;;;0.47;0.47;;;9.30;99.90;;;;;;5013912;28;20215;-61
2022/11/08 06:41:57;;;;;;;0.60;0.60;;;9.20;99.90;;;;;;5000751;28;20226;-62
2022/11/08 06:44:23;;;;;;;0.43;0.43;;;9.20;99.90;;;;;;5007069;28;20222;-62
2022/11/08 06:46:50;;;;;;;0.50;0.50;;;9.20;99.90;;;;;;5005206;28;20304;-63
2022/11/08 06:49:17;;;;;;;0.50;0.50;;;9.20;99.90;;;;;;5005305;28;20238;-64
2022/11/08 06:51:44;;;;;;;0.47;0.47;;;9.20;99.90;;;;;;5011920;28;20228;-64
2022/11/08 06:54:11;;;;;;;0.77;0.77;;;9.20;99.90;;;;;;5003905;28;20701;-63
2022/11/08 06:56:39;;;;;;;0.93;0.40;;;9.10;99.90;;;;;;5014808;28;20227;-63
2022/11/08 06:59:06;;;;;;;0.50;0.50;;;9.10;99.90;;;;;;5006598;28;20660;-63
2022/11/08 07:01:33;;;;;;;0.70;0.70;;;9.00;99.90;;;;;;5005434;28;20316;-64
2022/11/08 07:04:00;;;;;;;0.60;0.60;;;9.10;99.90;;;;;;5003160;28;20221;-62
2022/11/08 07:06:27;;;;;;;0.50;0.50;;;9.20;99.90;;;;;;5004154;28;20336;-63
2022/11/08 07:08:54;;;;;;;0.60;0.60;;;9.20;99.90;;;;;;5002365;28;20709;-63
2022/11/08 07:11:21;;;;;;;0.50;0.50;;;9.30;99.90;;;;;;5004960;28;20229;-62
2022/11/08 07:13:49;;;;;;;1.63;0.60;;;9.30;99.90;;;;;;5008267;28;20691;-64
2022/11/08 07:16:16;;;;;;;0.63;0.63;;;9.40;99.90;;;;;;4999994;28;20205;-62
2022/11/08 07:18:43;;;;;;;0.63;0.63;;;9.50;99.90;;;;;;5001494;28;20654;-63
2022/11/08 07:21:09;;;;;;;0.70;0.70;;;9.50;99.90;;;;;;5001488;28;20309;-61
2022/11/08 07:23:36;;;;;;;0.60;0.60;;;9.60;99.90;;;;;;4998634;28;20305;-62
2022/11/08 07:26:07;;;;;;;0.60;0.60;;;9.60;99.90;;;;;;4999792;28;20198;-65
2022/11/08 07:28:34;;;;;;;0.70;0.70;;;9.50;99.90;;;;;;5007046;28;20235;-62
2022/11/08 07:31:04;;;;;;;0.60;0.60;;;9.60;99.90;;;;;;5003431;28;20221;-62
2022/11/08 07:33:31;;;;;;;0.70;0.70;;;9.70;99.90;;;;;;4996982;28;20218;-64
2022/11/08 07:35:58;;;;;;;0.50;0.50;;;9.80;99.90;;;;;;4997449;28;20317;-62
2022/11/08 07:38:25;;;;;;;0.50;0.50;;;9.90;99.90;;;;;;5005897;28;20579;-63
2022/11/08 07:40:55;;;;;;;1.23;0.67;;;10.00;99.90;;;;;;5018757;28;20304;-63
2022/11/08 07:43:22;;;;;;;0.57;0.57;;;10.10;99.90;;;;;;5012970;28;20206;-63
2022/11/08 07:45:54;;;;;;;0.50;0.50;;;10.10;99.90;;;;;;5009129;28;20222;-64
2022/11/08 07:48:22;;;;;;;0.70;0.70;;;10.10;99.90;;;;;;5013886;28;20940;-63
2022/11/08 07:50:49;;;;;;;0.70;0.70;;;10.10;99.90;;;;;;5020777;28;20220;-65
2022/11/08 07:53:16;;;;;;;0.80;0.80;;;10.00;99.90;;;;;;5021051;28;20586;-62
2022/11/08 07:55:45;;;;;;;0.90;0.90;;;10.00;99.90;;;;;;5018124;28;20300;-64
2022/11/08 07:58:12;;;;;;;0.80;0.80;;;10.10;99.90;;;;;;5017754;28;20205;-63
2022/11/08 08:00:41;;;;;;;0.70;0.70;;;10.00;99.90;;;;;;5015170;28;20233;-64
2022/11/08 08:03:10;;;;;;;0.60;0.60;;;10.20;99.90;;;;;;5013056;28;20201;-63
2022/11/08 08:05:39;;;;;;;0.97;0.73;;;10.20;99.90;;;;;;5007419;28;20225;-62
2022/11/08 08:08:06;;;;;;;1.73;0.70;;;10.30;99.90;;;;;;5000292;28;20216;-62
2022/11/08 08:10:34;;;;;;;2.07;0.67;;;10.40;99.90;;;;;;5004294;28;20237;-64
2022/11/08 08:13:01;;;;;;;0.80;0.80;;;10.50;99.90;;;;;;5002960;28;20202;-63
2022/11/08 08:15:28;;;;;;;0.57;0.57;;;10.60;99.90;;;;;;5003049;28;20194;-64
2022/11/08 08:17:55;;;;;;;0.70;0.70;;;10.70;99.90;;;;;;4998699;28;20296;-64
2022/11/08 08:20:22;;;;;;;0.60;0.60;;;10.70;99.90;;;;;;5004649;28;20234;-63
2022/11/08 08:22:51;;;;;;;0.70;0.70;;;10.80;99.90;;;;;;5002180;28;20206;-63
2022/11/08 08:25:19;;;;;;;0.60;0.60;;;10.90;99.90;;;;;;5002019;28;20225;-63
2022/11/08 08:27:49;;;;;;;0.60;0.60;;;11.00;99.90;;;;;;5000605;28;20228;-62
2022/11/08 08:30:17;;;;;;;0.50;0.50;;;11.20;99.90;;;;;;5002811;28;20233;-63
2022/11/08 08:32:44;;;;;;;0.60;0.60;;;11.30;99.90;;;;;;5004408;28;20205;-63
2022/11/08 08:35:11;;;;;;;0.47;0.47;;;11.30;99.90;;;;;;5002052;28;20584;-63
2022/11/08 08:37:38;;;;;;;0.60;0.60;;;11.60;99.90;;;;;;5001308;28;20201;-64
2022/11/08 08:40:09;;;;;;;0.57;0.57;;;11.80;99.90;;;;;;5001160;28;20592;-64
2022/11/08 08:42:36;;;;;;;0.77;0.77;;;11.90;99.90;;;;;;4996461;28;20665;-64
2022/11/08 08:45:02;;;;;;;0.83;0.83;;;12.10;99.90;;;;;;5001010;28;20224;-62
2022/11/08 08:47:30;;;;;;;0.87;0.87;;;12.30;99.90;;;;;;4998148;28;20237;-63
2022/11/08 08:49:57;;;;;;;0.87;0.87;;;12.60;99.90;;;;;;4998771;28;20206;-62
2022/11/08 08:52:24;;;;;;;0.80;0.80;;;12.90;99.90;;;;;;4998237;28;20217;-62
2022/11/08 08:54:51;;;;;;;1.00;1.00;;;13.10;99.90;;;;;;5002114;28;20240;-62
2022/11/08 08:57:19;;;;;;;0.97;0.97;;;13.30;99.90;;;;;;4997581;28;20201;-62
2022/11/08 08:59:46;;;;;;;2.13;1.30;;;13.30;99.90;;;;;;5003875;28;20209;-61
2022/11/08 09:02:13;;;;;;;1.10;1.10;;;13.30;99.90;;;;;;4999254;28;20228;-62
2022/11/08 09:04:40;;;;;;;0.80;0.80;;;13.20;99.90;;;;;;4997435;28;20228;-62
2022/11/08 09:07:07;;;;;;;0.63;0.63;;;13.20;99.90;;;;;;5002518;28;20563;-62
2022/11/08 09:09:35;;;;;;;0.87;0.87;;;13.20;99.90;;;;;;5006122;28;20232;-62
2022/11/08 09:12:02;;;;;;;0.80;0.80;;;13.20;99.90;;;;;;4999623;28;20243;-62
2022/11/08 09:14:30;;;;;;;0.57;0.57;;;13.10;99.90;;;;;;5002811;28;20210;-63
2022/11/08 09:16:57;;;;;;;0.63;0.63;;;13.30;99.90;;;;;;5003397;28;20212;-63
2022/11/08 09:19:24;;;;;;;0.60;0.60;;;13.40;99.90;;;;;;5006866;28;20245;-62
2022/11/08 09:21:51;;;;;;;0.60;0.60;;;13.60;99.90;;;;;;5001892;28;20232;-63
2022/11/08 09:24:18;;;;;;;0.60;0.60;;;13.70;99.90;;;;;;4996595;28;20206;-63
2022/11/08 09:26:45;;;;;;;0.77;0.77;;;13.90;99.90;;;;;;5001905;28;20198;-62
2022/11/08 09:29:12;;;;;;;0.40;0.40;;;14.10;99.90;;;;;;5004432;28;20615;-64
2022/11/08 09:31:40;;;;;;;0.53;0.53;;;14.40;99.90;;;;;;4998819;28;20262;-62
2022/11/08 09:34:07;;;;;;;0.60;0.60;;;14.50;99.90;;;;;;5000846;28;20733;-63
2022/11/08 09:36:34;;;;;;;0.67;0.50;;;14.80;99.90;;;;;;5026869;23;20239;-68
2022/11/08 09:39:00;;;;;;;0.80;0.80;;;14.90;99.90;;;;;;5017877;28;20659;-66
2022/11/08 09:41:54;;;;;;;0.70;0.70;;;15.10;99.90;;;;;;5014141;28;20201;-67
2022/11/08 09:44:35;;;;;;;0.60;0.60;;;15.40;99.90;;;;;;5022799;28;20208;-67
2022/11/08 09:47:10;;;;;;;0.87;0.60;;;15.60;99.90;;;;;;5012971;28;20231;-68
2022/11/08 09:49:43;;;;;;;0.70;0.70;;;15.70;99.90;;;;;;5008544;28;20205;-65
2022/11/08 09:52:19;;;;;;;0.43;0.43;;;15.90;99.90;;;;;;5015402;28;20309;-66
2022/11/08 09:54:48;;;;;;;0.37;0.37;;;16.10;99.90;;;;;;5016121;28;20208;-65
2022/11/08 09:57:21;;;;;;;0.70;0.70;;;16.30;99.90;;;;;;5014053;28;20251;-66
2022/11/08 09:59:53;;;;;;;0.50;0.50;;;16.60;99.90;;;;;;5009472;28;20296;-66
2022/11/08 10:02:24;;;;;;;0.53;0.53;;;16.90;99.90;;;;;;5014074;28;20208;-67
2022/11/08 10:04:57;;;;;;;0.50;0.50;;;17.00;99.90;;;;;;5018416;28;20227;-67
2022/11/08 10:07:32;;;;;;;0.50;0.50;;;17.20;99.90;;;;;;5014348;28;20315;-65
2022/11/08 10:10:31;;;;;;;0.50;0.50;;;17.40;99.90;;;;;;5017633;28;20209;-67
2022/11/08 10:13:05;;;;;;;0.43;0.40;;;17.50;99.90;;;;;;4999919;28;20202;-66
2022/11/08 10:15:40;;;;;;;0.53;0.53;;;17.50;99.90;;;;;;5007224;28;20205;-67
2022/11/08 10:18:32;;;;;;;0.70;0.70;;;17.70;99.90;;;;;;5018309;28;20220;-65
2022/11/08 10:21:10;;;;;;;0.60;0.60;;;17.80;99.90;;;;;;5016512;28;20201;-66
2022/11/08 10:23:43;;;;;;;0.60;0.60;;;17.90;99.90;;;;;;5010488;28;20288;-66
2022/11/08 10:26:15;;;;;;;0.70;0.70;;;17.90;99.90;;;;;;5013270;28;20221;-65
2022/11/08 10:28:48;;;;;;;1.47;0.80;;;18.00;99.90;;;;;;5013619;28;20202;-66
2022/11/08 10:31:17;;;;;;;2.40;0.63;;;18.00;99.90;;;;;;5016944;28;20282;-67
2022/11/08 10:33:49;;;;;;;0.60;0.60;;;18.20;99.90;;;;;;5028478;28;20259;-67
2022/11/08 10:36:22;;;;;;;0.23;0.23;;;18.40;99.90;;;;;;5014561;28;21913;-67
2022/11/08 10:38:58;;;;;;;0.57;0.57;;;18.50;99.90;;;;;;5014593;28;20297;-67
2022/11/08 10:41:33;;;;;;;0.73;0.40;;;18.60;99.90;;;;;;5030476;28;20204;-66
2022/11/08 10:44:05;;;;;;;0.30;0.30;;;18.70;99.90;;;;;;5028794;28;20250;-66
2022/11/08 10:46:41;;;;;;;0.60;0.60;;;18.60;99.90;;;;;;5011441;28;20309;-67
2022/11/08 10:49:21;;;;;;;0.35;0.35;;;18.60;99.90;;;;;;5008249;28;20193;-66
2022/11/08 10:51:50;;;;;;;0.43;0.43;;;18.70;99.90;;;;;;5012104;28;20237;-65
2022/11/08 10:54:43;;;;;;;0.30;0.30;;;18.90;99.90;;;;;;5025622;28;20254;-67
2022/11/08 10:57:11;;;;;;;1.50;0.80;;;18.80;99.90;;;;;;5014559;28;20234;-66
2022/11/08 10:59:38;;;;;;;0.50;0.50;;;18.70;99.90;;;;;;5013712;28;20201;-66
2022/11/08 11:02:18;;;;;;;0.70;0.70;;;18.50;99.90;;;;;;5014894;28;20213;-66
2022/11/08 11:04:47;;;;;;;0.80;0.80;;;18.40;99.90;;;;;;5022645;28;20212;-66
2022/11/08 11:07:29;;;;;;;0.70;0.70;;;18.30;99.90;;;;;;5014854;28;20256;-66
2022/11/08 11:09:56;;;;;;;0.43;0.43;;;18.20;99.90;;;;;;5015726;28;20297;-65
2022/11/08 11:12:23;;;;;;;0.40;0.40;;;18.10;99.90;;;;;;5015194;28;20208;-67
2022/11/08 11:14:57;;;;;;;0.87;0.60;;;18.00;99.90;;;;;;5016565;28;20202;-64
2022/11/08 11:17:30;;;;;;;0.70;0.70;;;18.00;99.90;;;;;;5038130;28;20217;-66
2022/11/08 11:19:59;;;;;;;0.53;0.53;;;17.90;99.90;;;;;;5026102;28;20292;-66
2022/11/08 11:22:29;;;;;;;0.60;0.60;;;17.80;99.90;;;;;;5039637;28;20201;-67
2022/11/08 11:24:57;;;;;;;0.50;0.50;;;17.70;99.90;;;;;;5025061;28;20227;-66
2022/11/08 11:27:28;;;;;;;0.50;0.50;;;17.60;99.90;;;;;;5013855;28;20725;-68
2022/11/08 11:30:24;;;;;;;1.47;0.57;;;17.60;99.90;;;;;;5013308;28;20637;-67
2022/11/08 11:33:03;;;;;;;0.60;0.60;;;17.40;99.90;;;;;;5018073;28;20671;-67
2022/11/08 11:35:39;;;;;;;0.40;0.40;;;17.40;99.90;;;;;;5021427;28;20209;-65
2022/11/08 11:38:13;;;;;;;0.30;0.30;;;17.30;99.90;;;;;;5022849;28;20298;-66
2022/11/08 11:40:44;;;;;;;1.00;0.60;;;17.30;99.90;;;;;;5024252;28;20441;-66
2022/11/08 11:43:16;;;;;;;0.40;0.40;;;17.30;99.90;;;;;;5024405;28;20352;-67
2022/11/08 11:45:49;;;;;;;0.40;0.40;;;17.20;99.90;;;;;;5028538;28;20307;-66
2022/11/08 11:48:18;;;;;;;0.67;0.67;;;17.20;99.90;;;;;;5010892;28;20316;-66
2022/11/08 11:50:49;;;;;;;0.40;0.40;;;17.30;99.90;;;;;;5010695;28;20653;-66
2022/11/08 11:53:20;;;;;;;0.53;0.53;;;17.20;99.90;;;;;;5027271;28;20527;-66
2022/11/08 11:56:01;;;;;;;0.50;0.50;;;17.30;99.90;;;;;;5021624;28;20638;-67
2022/11/08 11:59:11;;;;;;;0.70;0.70;;;17.30;99.90;;;;;;5014531;28;20671;-66
2022/11/08 12:01:54;;;;;;;0.30;0.30;;;17.40;99.90;;;;;;5027234;28;20808;-66
2022/11/08 12:04:46;;;;;;;0.60;0.60;;;17.50;99.90;;;;;;5021596;28;20724;-67
2022/11/08 12:07:19;;;;;;;0.60;0.60;;;17.50;99.90;;;;;;5020692;28;20304;-67
2022/11/08 12:09:56;;;;;;;0.80;0.60;;;17.50;99.90;;;;;;5028102;28;20261;-67
2022/11/08 12:12:33;;;;;;;0.60;0.60;;;17.60;99.90;;;;;;5017600;28;20568;-67
2022/11/08 12:15:07;;;;;;;0.60;0.60;;;17.60;99.90;;;;;;5022197;28;20203;-66
2022/11/08 12:17:59;;;;;;;0.57;0.57;;;17.70;99.90;;;;;;5019730;28;20307;-66
2022/11/08 12:20:44;;;;;;;0.60;0.60;;;17.60;99.90;;;;;;5026689;28;20244;-66
2022/11/08 12:23:30;;;;;;;0.30;0.30;;;17.60;99.90;;;;;;5017882;28;20623;-65
2022/11/08 12:26:01;;;;;;;0.47;0.47;;;17.60;99.90;;;;;;5022271;28;20211;-67
2022/11/08 12:28:45;;;;;;;0.63;0.63;;;17.50;99.90;;;;;;5014316;28;20197;-65
2022/11/08 12:31:22;;;;;;;0.80;0.50;;;17.50;99.90;;;;;;5015817;28;20201;-66
2022/11/08 12:34:06;;;;;;;0.40;0.40;;;17.50;99.90;;;;;;5012121;28;20694;-66
2022/11/08 12:36:38;;;;;;;0.60;0.60;;;17.50;99.90;;;;;;5020445;28;20220;-67
2022/11/08 12:39:16;;;;;;;0.60;0.60;;;17.50;99.90;;;;;;5018191;28;20201;-65
2022/11/08 12:41:51;;;;;;;0.60;0.60;;;17.50;99.90;;;;;;5005598;28;20208;-66
2022/11/08 12:44:41;;;;;;;0.50;0.50;;;17.50;99.90;;;;;;5015304;28;20197;-66
2022/11/08 12:47:20;;;;;;;0.50;0.50;;;17.50;99.90;;;;;;5012725;28;20312;-67
2022/11/08 12:49:57;;;;;;;1.07;0.80;;;17.50;99.90;;;;;;5009311;28;20201;-65
2022/11/08 12:52:40;;;;;;;0.57;0.57;;;17.50;99.90;;;;;;5013572;28;20654;-66
2022/11/08 12:55:18;;;;;;;0.60;0.60;;;17.50;99.90;;;;;;5008304;28;20212;-66
2022/11/08 12:57:45;;;;;;;0.67;0.67;;;17.60;99.90;;;;;;5005558;28;20639;-67
2022/11/08 13:00:17;;;;;;;1.10;0.40;;;17.50;99.90;;;;;;5011504;28;20213;-66
2022/11/08 13:02:49;;;;;;;0.40;0.40;;;17.50;99.90;;;;;;5012450;28;20304;-66
2022/11/08 13:05:22;;;;;;;0.37;0.37;;;17.50;99.90;;;;;;5003141;28;20336;-66
2022/11/08 13:07:57;;;;;;;0.60;0.60;;;17.50;99.90;;;;;;5028233;28;20296;-65
2022/11/08 13:10:33;;;;;;;1.13;0.50;;;17.50;99.90;;;;;;5024175;28;20291;-65
2022/11/08 13:13:08;;;;;;;0.50;0.50;;;17.50;99.90;;;;;;5024085;28;20204;-66
2022/11/08 13:15:35;;;;;;;0.63;0.50;;;17.50;99.90;;;;;;5014039;28;20200;-65
2022/11/08 13:18:23;;;;;;;0.43;0.43;;;17.40;99.90;;;;;;5009206;28;20228;-66
2022/11/08 13:20:50;;;;;;;0.60;0.60;;;17.40;99.90;;;;;;5016673;28;20641;-65
2022/11/08 13:23:28;;;;;;;0.50;0.50;;;17.50;99.90;;;;;;5017295;28;20205;-66
2022/11/08 13:26:12;;;;;;;0.50;0.50;;;17.50;99.90;;;;;;5014403;28;20219;-66
2022/11/08 13:28:42;;;;;;;0.83;0.83;;;17.50;99.90;;;;;;5016534;28;20203;-66
2022/11/08 13:31:22;;;;;;;0.68;0.68;;;17.50;99.90;;;;;;5016522;28;20202;-66